Nearby METAR Reports

 

KSJC - San Jose, California, USA
Distance from station: NE 14km
Updated: 2020-08-03 22:53
Partly cloudy
Partly cloudy
 Wind from N
Wind: N 13 km/h
Temperature: 19°C
Dew Point: 13°C
Humidity: 68%
Barometer: 1016.3 hPa
Clouds: Partly cloudy
Visibility: 16 km
Cloud details: Few Clouds 366 m
Few Clouds 1524 m
Partly cloudy 2134 m
2020/08/04 03:53 KSJC 040353Z 01007KT 10SM FEW012 FEW050 SCT070 19/13 A3001 RMK AO2 SLP162 FU FEW050 FU SCT070 T01940133
KNUQ - Moffett Nas/Mtn, California, USA
Distance from station: N 14km
Updated: 2020-08-03 08:55
NOT Current
Clear
Clear
 Wind from calm
Wind: Calm
Temperature: 17°C
Dew Point: 14°C
Humidity: 83%
Barometer: 1016.6 hPa
Clouds: Clear
Visibility: 16 km
2020/08/03 13:55 KNUQ 031355Z AUTO 00000KT 10SM CLR 17/14 A3002 RMK AO2
 
KPAO - Palo Alto, California, USA
Distance from station: NNW 23km
Updated: 2020-08-03 18:47
NOT Current
Clear
Clear
 Wind from WNW
Wind: WNW 22 km/h, Gust: 37 km/h
Temperature: 27°C
Heat Index: 27°C
Dew Point: 13°C
Humidity: 42%
Barometer: 1016.3 hPa
Clouds: Clear
Visibility: 16 km
2020/08/03 23:47 KPAO 032347Z 29012G20KT 10SM SKC 27/13 A3001
KRHV - San Jose/Reid, California, USA
Distance from station: ENE 19km
Updated: 2020-08-03 22:47
Clear
Clear
 Wind from NNW
Wind: NNW 20 km/h
Temperature: 21°C
Dew Point: 13°C
Humidity: 60%
Barometer: 1016.3 hPa
Clouds: Clear
Visibility: 16 km
2020/08/04 03:47 KRHV 040347Z 34011KT 10SM SKC 21/13 A3001
 
KOAK - Oakland, California, USA
Distance from station: NNW 50km
Updated: 2020-08-03 22:53
Mostly cloudy
Mostly cloudy
 Wind from W
Wind: W 24 km/h
Temperature: 17°C
Dew Point: 14°C
Humidity: 83%
Barometer: 1016.3 hPa
Clouds: Mostly cloudy
Visibility: 16 km
Cloud details: Mostly cloudy 213 m
2020/08/04 03:53 KOAK 040353Z 27013KT 10SM BKN007 17/14 A3001 RMK AO2 SLP159 T01720139
KSQL - San Carlos Airpo, California, USA
Distance from station: NW 34km
Updated: 2020-08-03 23:35
Clear
Clear
 Wind from W
Wind: W 9 km/h
Temperature: 17°C
Dew Point: 14°C
Humidity: 83%
Barometer: 1016.6 hPa
Clouds: Clear
Visibility: 16 km
2020/08/04 04:35 KSQL 040435Z AUTO 27005KT 10SM CLR 17/14 A3002 RMK AO2
 
KSFO - San Francisco, California, USA
Distance from station: NW 49km
Updated: 2020-08-03 23:03
Overcast
Overcast
 Wind from W
Wind: W 31 km/h
Temperature: 16°C
Dew Point: 13°C
Humidity: 83%
Barometer: 1016.3 hPa
Clouds: Overcast
Visibility: 16 km
Cloud details: Few Clouds 122 m
Mostly cloudy 183 m
Overcast 244 m
2020/08/04 04:03 KSFO 040403Z 28017KT 10SM FEW004 BKN006 OVC008 16/13 A3001 RMK AO2 T01610133
KE16 - San Martin, California, USA
Distance from station: ESE 43km
Updated: 2020-08-03 23:20
Few Clouds
Few Clouds
 Wind from WNW
Wind: WNW 26 km/h, Gust: 31 km/h
Temperature: 22°C
Dew Point: 12°C
Humidity: 53%
Barometer: 1016.6 hPa
Clouds: Few Clouds
Visibility: 16 km
Cloud details: Few Clouds 945 m
2020/08/04 04:20 KE16 040420Z AUTO 30014G17KT 10SM FEW031 22/12 A3002 RMK AO2 PWINO PNO
 
KWVI - Watsonville, California, USA
Distance from station: SSE 44km
Updated: 2020-08-03 22:53
Clear
Clear
 Wind from SE
Wind: SE 7 km/h
Temperature: 17°C
Dew Point: 13°C
Humidity: 77%
Barometer: 1016.6 hPa
Clouds: Clear
Visibility: 16 km
2020/08/04 03:53 KWVI 040353Z AUTO 14004KT 10SM CLR 17/13 A3002 RMK AO2 SLP166 T01670133
KHAF - Half Moon Bay, California, USA
Distance from station: WNW 50km
Updated: 2020-08-03 23:35
Mist, Overcast
Mist, Overcast
 Wind from NW
Wind: NW 15 km/h
Temperature: 14°C
Dew Point: 14°C
Humidity: 100%
Barometer: 1017.6 hPa
Summary: Mist
Clouds: Overcast
Visibility: 1.2 km
Cloud details: Overcast 91 m
2020/08/04 04:35 KHAF 040435Z AUTO 32008KT 3/4SM BR OVC003 14/14 A3005 RMK AO2
 
KHWD - Hayward, California, USA
Distance from station: N 44km
Updated: 2020-08-03 22:54
Overcast
Overcast
 Wind from WSW
Wind: WSW 15 km/h
Temperature: 17°C
Dew Point: 13°C
Humidity: 77%
Barometer: 1016.3 hPa
Clouds: Overcast
Visibility: 16 km
Cloud details: Overcast 244 m
2020/08/04 03:54 KHWD 040354Z 24008KT 10SM OVC008 17/13 A3001 RMK AO2 SLP171 T01720133
KLVK - Livermore, California, USA
Distance from station: NNE 51km
Updated: 2020-08-03 22:53
Clear
Clear
 Wind from SW
Wind: SW 13 km/h
Temperature: 17°C
Dew Point: 14°C
Humidity: 83%
Barometer: 1015.6 hPa
Clouds: Clear
Visibility: 16 km
2020/08/04 03:53 KLVK 040353Z 23007KT 10SM CLR 17/14 A2999 RMK AO2 SLP153 T01720139 $